sensor_id;sensor_type;location;lat;lon;timestamp;pressure;altitude;pressure_sealevel;temperature;humidity
977;BME280;477;51.436;7.292;2024-01-15T00:00:07;99332.63;;;1.97;100.00
977;BME280;477;51.436;7.292;2024-01-15T00:02:36;99325.78;;;1.98;100.00
977;BME280;477;51.436;7.292;2024-01-15T00:05:05;99329.69;;;2.11;100.00
977;BME280;477;51.436;7.292;2024-01-15T00:07:36;99327.50;;;1.97;100.00
977;BME280;477;51.436;7.292;2024-01-15T00:10:05;99327.19;;;2.08;100.00
977;BME280;477;51.436;7.292;2024-01-15T00:12:34;99334.31;;;1.98;100.00
977;BME280;477;51.436;7.292;2024-01-15T00:15:04;99320.31;;;2.08;100.00
977;BME280;477;51.436;7.292;2024-01-15T00:17:35;99312.63;;;2.08;100.00
977;BME280;477;51.436;7.292;2024-01-15T00:20:06;99313.38;;;2.12;100.00
977;BME280;477;51.436;7.292;2024-01-15T00:22:37;99297.84;;;1.89;100.00
977;BME280;477;51.436;7.292;2024-01-15T00:25:09;99310.16;;;2.05;100.00
977;BME280;477;51.436;7.292;2024-01-15T00:27:38;99304.09;;;2.08;100.00
977;BME280;477;51.436;7.292;2024-01-15T00:30:08;99285.16;;;2.12;100.00
977;BME280;477;51.436;7.292;2024-01-15T00:32:37;99301.63;;;2.05;100.00
977;BME280;477;51.436;7.292;2024-01-15T00:35:07;99287.19;;;2.01;100.00
977;BME280;477;51.436;7.292;2024-01-15T00:37:39;99293.13;;;2.03;100.00
977;BME280;477;51.436;7.292;2024-01-15T00:40:09;99298.50;;;1.95;100.00
977;BME280;477;51.436;7.292;2024-01-15T00:42:41;99297.47;;;2.01;100.00
977;BME280;477;51.436;7.292;2024-01-15T00:45:10;99293.81;;;2.08;100.00
977;BME280;477;51.436;7.292;2024-01-15T00:47:39;99298.03;;;2.11;100.00
977;BME280;477;51.436;7.292;2024-01-15T00:50:10;99293.66;;;2.14;100.00
977;BME280;477;51.436;7.292;2024-01-15T00:52:42;99290.47;;;2.06;100.00
977;BME280;477;51.436;7.292;2024-01-15T00:55:11;99296.38;;;2.09;100.00
977;BME280;477;51.436;7.292;2024-01-15T00:57:41;99291.88;;;2.16;100.00
977;BME280;477;51.436;7.292;2024-01-15T01:00:12;99288.59;;;2.11;100.00
977;BME280;477;51.436;7.292;2024-01-15T01:02:41;99284.56;;;2.02;100.00
977;BME280;477;51.436;7.292;2024-01-15T01:05:10;99282.13;;;1.99;100.00
977;BME280;477;51.436;7.292;2024-01-15T01:07:38;99284.50;;;2.05;100.00
977;BME280;477;51.436;7.292;2024-01-15T01:10:09;99282.38;;;2.18;100.00
977;BME280;477;51.436;7.292;2024-01-15T01:12:38;99276.66;;;2.10;100.00
977;BME280;477;51.436;7.292;2024-01-15T01:15:08;99279.81;;;2.18;100.00
977;BME280;477;51.436;7.292;2024-01-15T01:17:37;99276.41;;;2.18;100.00
977;BME280;477;51.436;7.292;2024-01-15T01:20:08;99275.72;;;2.13;100.00
977;BME280;477;51.436;7.292;2024-01-15T01:22:39;99275.81;;;2.09;100.00
977;BME280;477;51.436;7.292;2024-01-15T01:25:10;99271.16;;;2.22;100.00
977;BME280;477;51.436;7.292;2024-01-15T01:27:41;99278.34;;;2.11;100.00
977;BME280;477;51.436;7.292;2024-01-15T01:30:10;99278.41;;;2.08;100.00
977;BME280;477;51.436;7.292;2024-01-15T01:32:40;99271.56;;;2.08;100.00
977;BME280;477;51.436;7.292;2024-01-15T01:35:08;99270.44;;;2.17;100.00
977;BME280;477;51.436;7.292;2024-01-15T01:37:38;99283.75;;;2.02;100.00
977;BME280;477;51.436;7.292;2024-01-15T01:40:13;99284.38;;;2.10;100.00
977;BME280;477;51.436;7.292;2024-01-15T01:42:41;99276.75;;;2.07;100.00
977;BME280;477;51.436;7.292;2024-01-15T01:45:11;99270.84;;;2.03;100.00
977;BME280;477;51.436;7.292;2024-01-15T01:47:40;99272.31;;;2.12;100.00
977;BME280;477;51.436;7.292;2024-01-15T01:50:13;99266.84;;;2.23;100.00
977;BME280;477;51.436;7.292;2024-01-15T01:52:42;99269.41;;;2.23;100.00
977;BME280;477;51.436;7.292;2024-01-15T01:55:13;99267.09;;;2.15;100.00
977;BME280;477;51.436;7.292;2024-01-15T01:57:42;99281.59;;;2.16;100.00
977;BME280;477;51.436;7.292;2024-01-15T02:00:14;99273.00;;;2.17;100.00
977;BME280;477;51.436;7.292;2024-01-15T02:02:44;99283.41;;;2.14;100.00
977;BME280;477;51.436;7.292;2024-01-15T02:05:19;99278.25;;;2.14;100.00
977;BME280;477;51.436;7.292;2024-01-15T02:07:47;99281.59;;;2.16;100.00
977;BME280;477;51.436;7.292;2024-01-15T02:10:18;99277.56;;;2.09;100.00
977;BME280;477;51.436;7.292;2024-01-15T02:12:47;99280.44;;;2.26;100.00
977;BME280;477;51.436;7.292;2024-01-15T02:15:16;99278.06;;;2.20;100.00
977;BME280;477;51.436;7.292;2024-01-15T02:17:58;99274.88;;;2.12;100.00
977;BME280;477;51.436;7.292;2024-01-15T02:20:27;99291.38;;;2.03;100.00
977;BME280;477;51.436;7.292;2024-01-15T02:23:09;99280.72;;;2.17;100.00
977;BME280;477;51.436;7.292;2024-01-15T02:25:40;99283.56;;;2.08;100.00
977;BME280;477;51.436;7.292;2024-01-15T02:28:11;99277.56;;;2.07;100.00
977;BME280;477;51.436;7.292;2024-01-15T02:30:41;99281.13;;;2.03;100.00
977;BME280;477;51.436;7.292;2024-01-15T02:33:11;99274.66;;;2.20;100.00
977;BME280;477;51.436;7.292;2024-01-15T02:35:41;99276.47;;;2.16;100.00
977;BME280;477;51.436;7.292;2024-01-15T02:38:11;99271.16;;;2.22;100.00
977;BME280;477;51.436;7.292;2024-01-15T02:40:40;99276.28;;;2.22;100.00
977;BME280;477;51.436;7.292;2024-01-15T02:43:09;99284.25;;;2.13;100.00
977;BME280;477;51.436;7.292;2024-01-15T02:45:37;99279.63;;;2.24;100.00
977;BME280;477;51.436;7.292;2024-01-15T02:48:06;99281.75;;;2.12;100.00
977;BME280;477;51.436;7.292;2024-01-15T02:50:35;99280.84;;;2.13;100.00
977;BME280;477;51.436;7.292;2024-01-15T02:53:05;99276.19;;;2.25;100.00
977;BME280;477;51.436;7.292;2024-01-15T02:55:35;99264.47;;;2.17;100.00
977;BME280;477;51.436;7.292;2024-01-15T02:58:04;99258.50;;;2.16;100.00
977;BME280;477;51.436;7.292;2024-01-15T03:00:33;99268.84;;;2.13;100.00
977;BME280;477;51.436;7.292;2024-01-15T03:03:02;99268.50;;;2.25;100.00
977;BME280;477;51.436;7.292;2024-01-15T03:05:30;99266.97;;;2.20;100.00
977;BME280;477;51.436;7.292;2024-01-15T03:07:59;99259.09;;;2.24;100.00
977;BME280;477;51.436;7.292;2024-01-15T03:10:28;99265.59;;;2.08;100.00
977;BME280;477;51.436;7.292;2024-01-15T03:12:59;99270.31;;;1.94;100.00
977;BME280;477;51.436;7.292;2024-01-15T03:15:28;99263.13;;;2.05;100.00
977;BME280;477;51.436;7.292;2024-01-15T03:17:56;99262.84;;;2.14;100.00
977;BME280;477;51.436;7.292;2024-01-15T03:20:25;99273.84;;;2.18;100.00
977;BME280;477;51.436;7.292;2024-01-15T03:22:53;99269.66;;;2.15;100.00
977;BME280;477;51.436;7.292;2024-01-15T03:25:23;99273.19;;;2.39;100.00
977;BME280;477;51.436;7.292;2024-01-15T03:27:52;99269.91;;;2.35;100.00
977;BME280;477;51.436;7.292;2024-01-15T03:30:22;99270.88;;;2.31;100.00
977;BME280;477;51.436;7.292;2024-01-15T03:32:51;99275.91;;;2.34;100.00
977;BME280;477;51.436;7.292;2024-01-15T03:35:20;99274.34;;;2.30;100.00
977;BME280;477;51.436;7.292;2024-01-15T03:37:49;99264.34;;;2.21;100.00
977;BME280;477;51.436;7.292;2024-01-15T03:40:18;99271.06;;;2.25;100.00
977;BME280;477;51.436;7.292;2024-01-15T03:42:51;99266.97;;;2.20;100.00
977;BME280;477;51.436;7.292;2024-01-15T03:45:22;99260.88;;;2.22;100.00
977;BME280;477;51.436;7.292;2024-01-15T03:47:50;99270.38;;;2.19;100.00
977;BME280;477;51.436;7.292;2024-01-15T03:50:21;99269.53;;;2.20;100.00
977;BME280;477;51.436;7.292;2024-01-15T03:52:50;99273.72;;;2.22;100.00
977;BME280;477;51.436;7.292;2024-01-15T03:55:19;99274.19;;;2.35;100.00
977;BME280;477;51.436;7.292;2024-01-15T03:57:48;99259.69;;;2.32;100.00
977;BME280;477;51.436;7.292;2024-01-15T04:00:17;99266.03;;;2.49;100.00
977;BME280;477;51.436;7.292;2024-01-15T04:02:47;99272.75;;;2.26;100.00
977;BME280;477;51.436;7.292;2024-01-15T04:05:16;99275.72;;;2.41;100.00
977;BME280;477;51.436;7.292;2024-01-15T04:07:44;99261.34;;;2.35;100.00
977;BME280;477;51.436;7.292;2024-01-15T04:10:14;99268.88;;;2.40;100.00
977;BME280;477;51.436;7.292;2024-01-15T04:12:42;99261.88;;;2.45;100.00
977;BME280;477;51.436;7.292;2024-01-15T04:15:13;99250.31;;;2.31;100.00
977;BME280;477;51.436;7.292;2024-01-15T04:17:42;99244.22;;;2.35;100.00
977;BME280;477;51.436;7.292;2024-01-15T04:20:13;99245.19;;;2.31;100.00
977;BME280;477;51.436;7.292;2024-01-15T04:22:43;99241.53;;;2.39;100.00
977;BME280;477;51.436;7.292;2024-01-15T04:25:12;99237.97;;;2.43;100.00
977;BME280;477;51.436;7.292;2024-01-15T04:27:40;99235.50;;;2.40;100.00
977;BME280;477;51.436;7.292;2024-01-15T04:30:10;99232.09;;;2.39;100.00
977;BME280;477;51.436;7.292;2024-01-15T04:32:39;99231.16;;;2.42;100.00
977;BME280;477;51.436;7.292;2024-01-15T04:35:08;99226.03;;;2.42;100.00
977;BME280;477;51.436;7.292;2024-01-15T04:37:39;99225.44;;;2.33;100.00
977;BME280;477;51.436;7.292;2024-01-15T04:40:09;99221.09;;;2.35;100.00
977;BME280;477;51.436;7.292;2024-01-15T04:42:40;99215.22;;;2.32;100.00
977;BME280;477;51.436;7.292;2024-01-15T04:45:09;99218.53;;;2.35;100.00
977;BME280;477;51.436;7.292;2024-01-15T04:47:38;99213.75;;;2.25;100.00
977;BME280;477;51.436;7.292;2024-01-15T04:50:07;99214.09;;;2.41;100.00
977;BME280;477;51.436;7.292;2024-01-15T04:52:38;99213.91;;;2.45;100.00
977;BME280;477;51.436;7.292;2024-01-15T04:55:07;99208.94;;;2.41;100.00
977;BME280;477;51.436;7.292;2024-01-15T04:57:36;99201.41;;;2.34;100.00
977;BME280;477;51.436;7.292;2024-01-15T05:00:06;99197.47;;;2.24;100.00
977;BME280;477;51.436;7.292;2024-01-15T05:02:35;99192.16;;;2.30;100.00
977;BME280;477;51.436;7.292;2024-01-15T05:05:04;99202.22;;;2.37;100.00
977;BME280;477;51.436;7.292;2024-01-15T05:07:33;99200.56;;;2.35;100.00
977;BME280;477;51.436;7.292;2024-01-15T05:10:04;99200.28;;;2.43;100.00
977;BME280;477;51.436;7.292;2024-01-15T05:12:34;99198.56;;;2.44;100.00
977;BME280;477;51.436;7.292;2024-01-15T05:15:04;99198.84;;;2.34;100.00
977;BME280;477;51.436;7.292;2024-01-15T05:17:33;99190.84;;;2.17;100.00
977;BME280;477;51.436;7.292;2024-01-15T05:20:02;99197.19;;;2.33;100.00
977;BME280;477;51.436;7.292;2024-01-15T05:22:32;99187.75;;;2.34;100.00
977;BME280;477;51.436;7.292;2024-01-15T05:25:00;99192.16;;;2.30;100.00
977;BME280;477;51.436;7.292;2024-01-15T05:27:31;99188.56;;;2.34;100.00
977;BME280;477;51.436;7.292;2024-01-15T05:29:59;99185.44;;;2.26;100.00
977;BME280;477;51.436;7.292;2024-01-15T05:32:29;99188.44;;;2.39;100.00
977;BME280;477;51.436;7.292;2024-01-15T05:34:57;99185.22;;;2.32;100.00
977;BME280;477;51.436;7.292;2024-01-15T05:37:26;99179.09;;;2.37;100.00
977;BME280;477;51.436;7.292;2024-01-15T05:39:55;99177.81;;;2.23;100.00
977;BME280;477;51.436;7.292;2024-01-15T05:42:23;99175.25;;;2.23;100.00
977;BME280;477;51.436;7.292;2024-01-15T05:44:54;99173.78;;;2.16;100.00
977;BME280;477;51.436;7.292;2024-01-15T05:47:22;99184.59;;;2.26;100.00
977;BME280;477;51.436;7.292;2024-01-15T05:49:51;99177.78;;;2.25;100.00
977;BME280;477;51.436;7.292;2024-01-15T05:52:20;99177.53;;;2.32;100.00
977;BME280;477;51.436;7.292;2024-01-15T05:54:49;99175.66;;;2.38;100.00
977;BME280;477;51.436;7.292;2024-01-15T05:57:18;99175.50;;;2.42;100.00
977;BME280;477;51.436;7.292;2024-01-15T05:59:46;99186.06;;;2.33;100.00
977;BME280;477;51.436;7.292;2024-01-15T06:02:17;99185.53;;;2.23;100.00
977;BME280;477;51.436;7.292;2024-01-15T06:04:45;99178.63;;;2.25;100.00
977;BME280;477;51.436;7.292;2024-01-15T06:07:15;99180.50;;;2.20;100.00
977;BME280;477;51.436;7.292;2024-01-15T06:09:43;99182.41;;;2.40;100.00
977;BME280;477;51.436;7.292;2024-01-15T06:12:12;99172.75;;;2.22;100.00
977;BME280;477;51.436;7.292;2024-01-15T06:14:41;99179.19;;;2.33;100.00
977;BME280;477;51.436;7.292;2024-01-15T06:17:10;99164.78;;;2.29;100.00
977;BME280;477;51.436;7.292;2024-01-15T06:19:40;99166.56;;;2.27;100.00
977;BME280;477;51.436;7.292;2024-01-15T06:22:08;99167.94;;;2.38;100.00
977;BME280;477;51.436;7.292;2024-01-15T06:24:37;99158.72;;;2.32;100.00
977;BME280;477;51.436;7.292;2024-01-15T06:27:07;99155.41;;;2.28;100.00
977;BME280;477;51.436;7.292;2024-01-15T06:29:38;99159.56;;;2.32;100.00
977;BME280;477;51.436;7.292;2024-01-15T06:32:07;99156.84;;;2.37;100.00
977;BME280;477;51.436;7.292;2024-01-15T06:34:35;99153.38;;;2.38;100.00
977;BME280;477;51.436;7.292;2024-01-15T06:37:06;99157.88;;;2.31;100.00
977;BME280;477;51.436;7.292;2024-01-15T06:39:35;99157.75;;;2.34;100.00
977;BME280;477;51.436;7.292;2024-01-15T06:42:05;99154.41;;;2.32;100.00
977;BME280;477;51.436;7.292;2024-01-15T06:44:33;99161.06;;;2.38;100.00
977;BME280;477;51.436;7.292;2024-01-15T06:47:02;99154.63;;;2.26;100.00
977;BME280;477;51.436;7.292;2024-01-15T06:49:31;99161.22;;;2.33;100.00
977;BME280;477;51.436;7.292;2024-01-15T06:52:01;99153.44;;;2.37;100.00
977;BME280;477;51.436;7.292;2024-01-15T06:54:32;99145.72;;;2.37;100.00
977;BME280;477;51.436;7.292;2024-01-15T06:57:01;99155.25;;;2.33;100.00
977;BME280;477;51.436;7.292;2024-01-15T06:59:29;99156.84;;;2.37;100.00
977;BME280;477;51.436;7.292;2024-01-15T07:01:58;99150.66;;;2.43;100.00
977;BME280;477;51.436;7.292;2024-01-15T07:04:27;99153.16;;;2.44;100.00
977;BME280;477;51.436;7.292;2024-01-15T07:06:56;99161.69;;;2.45;100.00
977;BME280;477;51.436;7.292;2024-01-15T07:09:24;99157.88;;;2.31;100.00
977;BME280;477;51.436;7.292;2024-01-15T07:11:54;99153.00;;;2.49;100.00
977;BME280;477;51.436;7.292;2024-01-15T07:14:24;99160.84;;;2.46;100.00
977;BME280;477;51.436;7.292;2024-01-15T07:16:53;99167.59;;;2.48;100.00
977;BME280;477;51.436;7.292;2024-01-15T07:19:22;99167.25;;;2.32;100.00
977;BME280;477;51.436;7.292;2024-01-15T07:21:53;99161.81;;;2.42;100.00
977;BME280;477;51.436;7.292;2024-01-15T07:24:23;99163.69;;;2.37;100.00
977;BME280;477;51.436;7.292;2024-01-15T07:26:53;99161.84;;;2.40;100.00
977;BME280;477;51.436;7.292;2024-01-15T07:29:22;99166.28;;;2.37;100.00
977;BME280;477;51.436;7.292;2024-01-15T07:31:51;99168.72;;;2.40;100.00
977;BME280;477;51.436;7.292;2024-01-15T07:34:20;99167.84;;;2.41;100.00
977;BME280;477;51.436;7.292;2024-01-15T07:36:49;99162.59;;;2.44;100.00
977;BME280;477;51.436;7.292;2024-01-15T07:39:18;99164.19;;;2.48;100.00
977;BME280;477;51.436;7.292;2024-01-15T07:41:47;99161.81;;;2.42;100.00
977;BME280;477;51.436;7.292;2024-01-15T07:44:17;99164.75;;;2.31;100.00
977;BME280;477;51.436;7.292;2024-01-15T07:46:47;99168.56;;;2.44;100.00
977;BME280;477;51.436;7.292;2024-01-15T07:49:17;99168.91;;;2.35;100.00
977;BME280;477;51.436;7.292;2024-01-15T07:51:46;99170.09;;;2.50;100.00
977;BME280;477;51.436;7.292;2024-01-15T07:54:17;99170.69;;;2.58;100.00
977;BME280;477;51.436;7.292;2024-01-15T07:57:04;99165.09;;;2.45;100.00
977;BME280;477;51.436;7.292;2024-01-15T07:59:35;99161.69;;;2.45;100.00
977;BME280;477;51.436;7.292;2024-01-15T08:02:04;99160.72;;;2.49;100.00
977;BME280;477;51.436;7.292;2024-01-15T08:04:33;99169.41;;;2.45;100.00
977;BME280;477;51.436;7.292;2024-01-15T08:07:03;99159.13;;;2.45;100.00
977;BME280;477;51.436;7.292;2024-01-15T08:09:33;99156.63;;;2.43;100.00
977;BME280;477;51.436;7.292;2024-01-15T08:12:05;99155.78;;;2.43;100.00
977;BME280;477;51.436;7.292;2024-01-15T08:14:38;99153.22;;;2.43;100.00
977;BME280;477;51.436;7.292;2024-01-15T08:17:07;99150.44;;;2.49;100.00
977;BME280;477;51.436;7.292;2024-01-15T08:19:35;99149.38;;;2.29;100.00
977;BME280;477;51.436;7.292;2024-01-15T08:22:04;99150.56;;;2.46;100.00
977;BME280;477;51.436;7.292;2024-01-15T08:24:34;99148.84;;;2.45;100.00
977;BME280;477;51.436;7.292;2024-01-15T08:27:04;99155.19;;;2.34;100.00
977;BME280;477;51.436;7.292;2024-01-15T08:29:33;99151.38;;;2.21;100.00
977;BME280;477;51.436;7.292;2024-01-15T08:32:05;99147.59;;;2.31;100.00
977;BME280;477;51.436;7.292;2024-01-15T08:34:36;99149.78;;;2.17;100.00
977;BME280;477;51.436;7.292;2024-01-15T08:37:05;99146.31;;;2.18;100.00
977;BME280;477;51.436;7.292;2024-01-15T08:39:36;99146.03;;;2.27;100.00
977;BME280;477;51.436;7.292;2024-01-15T08:42:08;99147.81;;;2.25;100.00
977;BME280;477;51.436;7.292;2024-01-15T08:44:38;99151.06;;;2.30;100.00
977;BME280;477;51.436;7.292;2024-01-15T08:47:09;99150.19;;;2.05;100.00
977;BME280;477;51.436;7.292;2024-01-15T08:49:38;99150.53;;;2.21;100.00
977;BME280;477;51.436;7.292;2024-01-15T08:52:08;99151.25;;;2.24;100.00
977;BME280;477;51.436;7.292;2024-01-15T08:54:38;99158.09;;;2.25;100.00
977;BME280;477;51.436;7.292;2024-01-15T08:57:07;99155.59;;;2.22;100.00
977;BME280;477;51.436;7.292;2024-01-15T08:59:35;99161.84;;;2.15;100.00
977;BME280;477;51.436;7.292;2024-01-15T09:02:06;99164.34;;;2.17;100.00
977;BME280;477;51.436;7.292;2024-01-15T09:04:36;99167.16;;;2.09;100.00
977;BME280;477;51.436;7.292;2024-01-15T09:07:05;99162.91;;;2.08;100.00
977;BME280;477;51.436;7.292;2024-01-15T09:09:35;99165.09;;;1.94;100.00
977;BME280;477;51.436;7.292;2024-01-15T09:12:05;99164.53;;;2.11;100.00
977;BME280;477;51.436;7.292;2024-01-15T09:14:34;99172.31;;;2.09;100.00
977;BME280;477;51.436;7.292;2024-01-15T09:17:04;99172.31;;;2.09;100.00
977;BME280;477;51.436;7.292;2024-01-15T09:19:33;99177.81;;;1.97;100.00
977;BME280;477;51.436;7.292;2024-01-15T09:22:04;99182.03;;;2.26;100.00
977;BME280;477;51.436;7.292;2024-01-15T09:24:32;99184.44;;;2.04;100.00
977;BME280;477;51.436;7.292;2024-01-15T09:27:02;99176.34;;;2.16;100.00
977;BME280;477;51.436;7.292;2024-01-15T09:29:31;99178.16;;;2.13;100.00
977;BME280;477;51.436;7.292;2024-01-15T09:32:01;99176.91;;;2.24;100.00
977;BME280;477;51.436;7.292;2024-01-15T09:34:36;99171.91;;;2.21;100.00
977;BME280;477;51.436;7.292;2024-01-15T09:37:09;99173.97;;;2.10;100.00
977;BME280;477;51.436;7.292;2024-01-15T09:39:48;99176.34;;;2.16;100.00
977;BME280;477;51.436;7.292;2024-01-15T09:42:20;99183.56;;;2.31;100.00
977;BME280;477;51.436;7.292;2024-01-15T09:44:49;99191.13;;;2.08;100.00
977;BME280;477;51.436;7.292;2024-01-15T09:47:18;99198.06;;;2.06;100.00
977;BME280;477;51.436;7.292;2024-01-15T09:49:48;99195.88;;;1.94;100.00
977;BME280;477;51.436;7.292;2024-01-15T09:52:19;99196.47;;;2.02;100.00
977;BME280;477;51.436;7.292;2024-01-15T09:54:49;99202.25;;;2.08;100.00
977;BME280;477;51.436;7.292;2024-01-15T09:57:18;99198.66;;;2.14;100.00
977;BME280;477;51.436;7.292;2024-01-15T09:59:51;99190.22;;;2.11;100.00
977;BME280;477;51.436;7.292;2024-01-15T10:02:20;99191.88;;;2.12;100.00
977;BME280;477;51.436;7.292;2024-01-15T10:04:49;99193.56;;;2.13;100.00
977;BME280;477;51.436;7.292;2024-01-15T10:07:19;99199.53;;;2.13;100.00
977;BME280;477;51.436;7.292;2024-01-15T10:09:49;99202.56;;;1.98;100.00
977;BME280;477;51.436;7.292;2024-01-15T10:12:18;99199.41;;;2.18;100.00
977;BME280;477;51.436;7.292;2024-01-15T10:14:46;99195.09;;;2.18;100.00
977;BME280;477;51.436;7.292;2024-01-15T10:17:16;99193.19;;;1.97;100.00
977;BME280;477;51.436;7.292;2024-01-15T10:19:46;99182.84;;;2.00;100.00
977;BME280;477;51.436;7.292;2024-01-15T10:22:18;99183.94;;;2.19;100.00
977;BME280;477;51.436;7.292;2024-01-15T10:24:47;99186.91;;;2.07;100.00
977;BME280;477;51.436;7.292;2024-01-15T10:27:16;99179.00;;;2.13;100.00
977;BME280;477;51.436;7.292;2024-01-15T10:29:45;99174.66;;;2.15;100.00
977;BME280;477;51.436;7.292;2024-01-15T10:32:14;99180.69;;;2.14;100.00
977;BME280;477;51.436;7.292;2024-01-15T10:34:43;99183.56;;;2.05;100.00
977;BME280;477;51.436;7.292;2024-01-15T10:37:12;99180.72;;;2.13;100.00
977;BME280;477;51.436;7.292;2024-01-15T10:39:42;99177.25;;;2.15;100.00
977;BME280;477;51.436;7.292;2024-01-15T10:42:11;99173.91;;;2.12;100.00
977;BME280;477;51.436;7.292;2024-01-15T10:44:43;99179.69;;;2.18;100.00
977;BME280;477;51.436;7.292;2024-01-15T10:47:14;99172.19;;;2.12;100.00
977;BME280;477;51.436;7.292;2024-01-15T10:49:43;99181.47;;;2.16;100.00
977;BME280;477;51.436;7.292;2024-01-15T10:52:12;99179.19;;;2.07;100.00
977;BME280;477;51.436;7.292;2024-01-15T10:54:43;99179.75;;;2.17;100.00
977;BME280;477;51.436;7.292;2024-01-15T10:57:15;99182.19;;;2.21;100.00
977;BME280;477;51.436;7.292;2024-01-15T10:59:44;99185.16;;;2.07;100.00
977;BME280;477;51.436;7.292;2024-01-15T11:02:14;99184.34;;;2.07;100.00
977;BME280;477;51.436;7.292;2024-01-15T11:04:44;99187.94;;;2.28;100.00
977;BME280;477;51.436;7.292;2024-01-15T11:07:14;99184.25;;;2.10;100.00
977;BME280;477;51.436;7.292;2024-01-15T11:09:45;99182.25;;;2.18;100.00
977;BME280;477;51.436;7.292;2024-01-15T11:12:16;99184.25;;;2.10;100.00
977;BME280;477;51.436;7.292;2024-01-15T11:14:48;99177.13;;;2.18;100.00
977;BME280;477;51.436;7.292;2024-01-15T11:17:18;99179.00;;;2.13;100.00
977;BME280;477;51.436;7.292;2024-01-15T11:19:48;99176.44;;;2.13;100.00
977;BME280;477;51.436;7.292;2024-01-15T11:22:49;99179.47;;;2.26;100.00
977;BME280;477;51.436;7.292;2024-01-15T11:25:20;99179.88;;;2.39;100.00
977;BME280;477;51.436;7.292;2024-01-15T11:27:50;99181.88;;;2.30;100.00
977;BME280;477;51.436;7.292;2024-01-15T11:30:25;99189.63;;;2.29;100.00
977;BME280;477;51.436;7.292;2024-01-15T11:32:55;99176.34;;;2.16;100.00
977;BME280;477;51.436;7.292;2024-01-15T11:35:50;99186.66;;;2.15;100.00
977;BME280;477;51.436;7.292;2024-01-15T11:38:28;99193.28;;;2.22;100.00
977;BME280;477;51.436;7.292;2024-01-15T11:41:14;99185.53;;;2.23;100.00
977;BME280;477;51.436;7.292;2024-01-15T11:43:43;99188.84;;;2.27;100.00
977;BME280;477;51.436;7.292;2024-01-15T11:46:12;99183.94;;;2.19;100.00
977;BME280;477;51.436;7.292;2024-01-15T11:48:44;99183.22;;;2.16;100.00
977;BME280;477;51.436;7.292;2024-01-15T11:51:16;99175.78;;;2.33;100.00
977;BME280;477;51.436;7.292;2024-01-15T11:53:52;99187.03;;;2.30;100.00
977;BME280;477;51.436;7.292;2024-01-15T11:56:26;99179.94;;;2.37;100.00
977;BME280;477;51.436;7.292;2024-01-15T11:58:55;99171.69;;;2.27;100.00
977;BME280;477;51.436;7.292;2024-01-15T12:01:26;99168.91;;;2.35;100.00
977;BME280;477;51.436;7.292;2024-01-15T12:03:55;99180.19;;;2.29;100.00
977;BME280;477;51.436;7.292;2024-01-15T12:06:25;99165.16;;;2.44;100.00
977;BME280;477;51.436;7.292;2024-01-15T12:09:06;99167.59;;;2.22;100.00
977;BME280;477;51.436;7.292;2024-01-15T12:11:37;99162.88;;;2.36;100.00
977;BME280;477;51.436;7.292;2024-01-15T12:14:07;99174.53;;;2.45;100.00
977;BME280;477;51.436;7.292;2024-01-15T12:16:36;99157.75;;;2.34;100.00
977;BME280;477;51.436;7.292;2024-01-15T12:19:06;99175.22;;;2.50;100.00
977;BME280;477;51.436;7.292;2024-01-15T12:21:39;99180.78;;;2.38;100.00
977;BME280;477;51.436;7.292;2024-01-15T12:24:08;99175.84;;;2.31;100.00
977;BME280;477;51.436;7.292;2024-01-15T12:26:41;99175.72;;;2.36;100.00
977;BME280;477;51.436;7.292;2024-01-15T12:29:12;99179.19;;;2.33;100.00
977;BME280;477;51.436;7.292;2024-01-15T12:31:41;99174.22;;;2.29;100.00
977;BME280;477;51.436;7.292;2024-01-15T12:34:11;99173.28;;;2.31;100.00
977;BME280;477;51.436;7.292;2024-01-15T12:36:42;99179.53;;;2.49;100.00
977;BME280;477;51.436;7.292;2024-01-15T12:39:13;99179.59;;;2.48;100.00
977;BME280;477;51.436;7.292;2024-01-15T12:41:44;99180.06;;;2.59;100.00
977;BME280;477;51.436;7.292;2024-01-15T12:44:15;99183.78;;;2.50;100.00
977;BME280;477;51.436;7.292;2024-01-15T12:46:44;99181.75;;;2.35;100.00
977;BME280;477;51.436;7.292;2024-01-15T12:49:13;99181.38;;;2.46;100.00
977;BME280;477;51.436;7.292;2024-01-15T12:51:45;99185.34;;;2.54;100.00
977;BME280;477;51.436;7.292;2024-01-15T12:54:22;99183.00;;;2.48;100.00
977;BME280;477;51.436;7.292;2024-01-15T12:56:52;99177.66;;;2.54;100.00
977;BME280;477;51.436;7.292;2024-01-15T12:59:21;99185.97;;;2.36;100.00
977;BME280;477;51.436;7.292;2024-01-15T13:01:50;99184.81;;;2.45;100.00
977;BME280;477;51.436;7.292;2024-01-15T13:04:22;99186.41;;;2.49;100.00
977;BME280;477;51.436;7.292;2024-01-15T13:06:53;99195.78;;;2.50;100.00
977;BME280;477;51.436;7.292;2024-01-15T13:09:21;99200.56;;;2.60;100.00
977;BME280;477;51.436;7.292;2024-01-15T13:11:51;99202.25;;;2.61;100.00
977;BME280;477;51.436;7.292;2024-01-15T13:14:21;99200.19;;;2.46;100.00
977;BME280;477;51.436;7.292;2024-01-15T13:16:50;99201.81;;;2.49;100.00
977;BME280;477;51.436;7.292;2024-01-15T13:19:22;99201.03;;;2.47;100.00
977;BME280;477;51.436;7.292;2024-01-15T13:21:51;99203.53;;;2.48;100.00
977;BME280;477;51.436;7.292;2024-01-15T13:24:21;99195.84;;;2.48;100.00
977;BME280;477;51.436;7.292;2024-01-15T13:26:52;99192.44;;;2.48;100.00
977;BME280;477;51.436;7.292;2024-01-15T13:29:24;99186.84;;;2.61;100.00
977;BME280;477;51.436;7.292;2024-01-15T13:31:57;99193.81;;;2.58;100.00
977;BME280;477;51.436;7.292;2024-01-15T13:34:26;99199.34;;;2.72;100.00
977;BME280;477;51.436;7.292;2024-01-15T13:36:55;99201.31;;;2.64;100.00
977;BME280;477;51.436;7.292;2024-01-15T13:39:26;99208.03;;;2.68;100.00
977;BME280;477;51.436;7.292;2024-01-15T13:41:56;99214.69;;;2.74;100.00
977;BME280;477;51.436;7.292;2024-01-15T13:44:25;99216.31;;;2.76;100.00
977;BME280;477;51.436;7.292;2024-01-15T13:46:57;99217.56;;;2.65;100.00
977;BME280;477;51.436;7.292;2024-01-15T13:49:26;99218.50;;;2.87;100.00
977;BME280;477;51.436;7.292;2024-01-15T13:51:56;99214.91;;;2.93;100.00
977;BME280;477;51.436;7.292;2024-01-15T13:54:25;99214.84;;;2.69;100.00
977;BME280;477;51.436;7.292;2024-01-15T13:57:16;99220.53;;;2.79;100.00
977;BME280;477;51.436;7.292;2024-01-15T13:59:50;99215.78;;;2.92;100.00